METAR Data
IDs: Format: Raw Decoded Include TAF

Data at: 0808 UTC 01 Aug 2021

LKKB 010800Z 34006KT 4000 RA BR FEW040 OVC050 13/13 Q1008 NOSIG